sensor_id;sensor_type;location;lat;lon;timestamp;pressure;altitude;pressure_sealevel;temperature;humidity
70256;BME280;57669;52.624;-1.688;2022-09-27T00:00:02;99845.72;;;7.66;58.84
70256;BME280;57669;52.624;-1.688;2022-09-27T00:02:27;99854.04;;;8.16;58.02
70256;BME280;57669;52.624;-1.688;2022-09-27T00:04:52;99852.13;;;7.66;59.29
70256;BME280;57669;52.624;-1.688;2022-09-27T00:07:18;99857.59;;;7.37;60.46
70256;BME280;57669;52.624;-1.688;2022-09-27T00:09:43;99855.38;;;6.98;61.12
70256;BME280;57669;52.624;-1.688;2022-09-27T00:14:34;99847.96;;;7.32;61.13
70256;BME280;57669;52.624;-1.688;2022-09-27T00:17:00;99850.54;;;6.75;61.48
70256;BME280;57669;52.624;-1.688;2022-09-27T00:19:25;99846.98;;;7.09;61.64
70256;BME280;57669;52.624;-1.688;2022-09-27T00:21:51;99844.43;;;7.46;60.39
70256;BME280;57669;52.624;-1.688;2022-09-27T00:24:18;99847.46;;;7.17;61.06
70256;BME280;57669;52.624;-1.688;2022-09-27T00:26:41;99850.08;;;6.72;62.45
70256;BME280;57669;52.624;-1.688;2022-09-27T00:29:08;99842.08;;;6.97;61.63
70256;BME280;57669;52.624;-1.688;2022-09-27T00:31:32;99850.06;;;6.82;63.24
70256;BME280;57669;52.624;-1.688;2022-09-27T00:33:59;99856.66;;;7.08;62.39
70256;BME280;57669;52.624;-1.688;2022-09-27T00:36:23;99850.66;;;7.13;62.01
70256;BME280;57669;52.624;-1.688;2022-09-27T00:38:48;99852.79;;;7.21;62.10
70256;BME280;57669;52.624;-1.688;2022-09-27T00:41:16;99851.35;;;7.23;61.40
70256;BME280;57669;52.624;-1.688;2022-09-27T00:43:45;99860.14;;;7.06;62.75
70256;BME280;57669;52.624;-1.688;2022-09-27T00:46:05;99856.14;;;7.21;61.19
70256;BME280;57669;52.624;-1.688;2022-09-27T00:48:32;99856.42;;;7.10;62.46
70256;BME280;57669;52.624;-1.688;2022-09-27T00:50:58;99854.59;;;7.24;61.20
70256;BME280;57669;52.624;-1.688;2022-09-27T00:53:23;99850.25;;;6.98;61.44
70256;BME280;57669;52.624;-1.688;2022-09-27T00:55:48;99845.39;;;6.90;61.78
70256;BME280;57669;52.624;-1.688;2022-09-27T00:58:13;99844.91;;;6.62;62.45
70256;BME280;57669;52.624;-1.688;2022-09-27T01:00:43;99844.44;;;6.94;61.82
70256;BME280;57669;52.624;-1.688;2022-09-27T01:03:06;99845.85;;;6.48;61.69
70256;BME280;57669;52.624;-1.688;2022-09-27T01:05:29;99843.93;;;6.33;62.42
70256;BME280;57669;52.624;-1.688;2022-09-27T01:07:53;99841.44;;;5.91;62.90
70256;BME280;57669;52.624;-1.688;2022-09-27T01:10:19;99837.63;;;5.54;64.33
70256;BME280;57669;52.624;-1.688;2022-09-27T01:12:56;99841.83;;;5.72;63.57
70256;BME280;57669;52.624;-1.688;2022-09-27T01:15:18;99835.13;;;5.96;63.82
70256;BME280;57669;52.624;-1.688;2022-09-27T01:17:47;99828.41;;;6.38;62.23
70256;BME280;57669;52.624;-1.688;2022-09-27T01:22:29;99831.63;;;6.06;62.84
70256;BME280;57669;52.624;-1.688;2022-09-27T01:25:03;99824.96;;;6.57;61.21
70256;BME280;57669;52.624;-1.688;2022-09-27T01:27:36;99824.14;;;6.55;60.86
70256;BME280;57669;52.624;-1.688;2022-09-27T01:29:55;99823.85;;;6.73;60.61
70256;BME280;57669;52.624;-1.688;2022-09-27T01:32:14;99826.29;;;6.50;61.18
70256;BME280;57669;52.624;-1.688;2022-09-27T01:34:42;99825.79;;;6.27;61.09
70256;BME280;57669;52.624;-1.688;2022-09-27T01:37:07;99825.81;;;6.41;61.14
70256;BME280;57669;52.624;-1.688;2022-09-27T01:39:33;99831.10;;;6.57;61.08
70256;BME280;57669;52.624;-1.688;2022-09-27T01:41:59;99827.79;;;6.77;60.48
70256;BME280;57669;52.624;-1.688;2022-09-27T01:44:24;99827.45;;;6.74;60.89
70256;BME280;57669;52.624;-1.688;2022-09-27T01:46:46;99830.00;;;6.72;60.63
70256;BME280;57669;52.624;-1.688;2022-09-27T01:49:15;99835.70;;;6.77;60.05
70256;BME280;57669;52.624;-1.688;2022-09-27T01:51:38;99828.35;;;6.87;60.57
70256;BME280;57669;52.624;-1.688;2022-09-27T01:54:01;99833.13;;;6.29;61.15
70256;BME280;57669;52.624;-1.688;2022-09-27T01:56:28;99831.81;;;6.54;61.09
70256;BME280;57669;52.624;-1.688;2022-09-27T01:58:53;99824.46;;;6.59;60.82
70256;BME280;57669;52.624;-1.688;2022-09-27T02:01:17;99823.73;;;6.83;60.24
70256;BME280;57669;52.624;-1.688;2022-09-27T02:03:44;99825.24;;;6.93;60.10
70256;BME280;57669;52.624;-1.688;2022-09-27T02:06:10;99815.47;;;6.81;59.98
70256;BME280;57669;52.624;-1.688;2022-09-27T02:08:37;99813.10;;;6.48;61.12
70256;BME280;57669;52.624;-1.688;2022-09-27T02:10:59;99812.43;;;6.57;60.66
70256;BME280;57669;52.624;-1.688;2022-09-27T02:13:26;99806.19;;;6.47;60.73
70256;BME280;57669;52.624;-1.688;2022-09-27T02:15:55;99799.77;;;6.96;60.07
70256;BME280;57669;52.624;-1.688;2022-09-27T02:18:17;99792.58;;;6.79;59.08
70256;BME280;57669;52.624;-1.688;2022-09-27T02:20:43;99784.72;;;6.72;59.96
70256;BME280;57669;52.624;-1.688;2022-09-27T02:23:12;99786.51;;;6.73;60.00
70256;BME280;57669;52.624;-1.688;2022-09-27T02:25:35;99786.51;;;7.12;59.40
70256;BME280;57669;52.624;-1.688;2022-09-27T02:27:59;99778.24;;;6.83;59.64
70256;BME280;57669;52.624;-1.688;2022-09-27T02:30:21;99778.81;;;6.40;59.90
70256;BME280;57669;52.624;-1.688;2022-09-27T02:32:47;99764.58;;;6.68;59.58
70256;BME280;57669;52.624;-1.688;2022-09-27T02:35:16;99764.44;;;6.78;59.47
70256;BME280;57669;52.624;-1.688;2022-09-27T02:37:38;99767.88;;;7.11;58.63
70256;BME280;57669;52.624;-1.688;2022-09-27T02:40:04;99767.06;;;7.13;58.71
70256;BME280;57669;52.624;-1.688;2022-09-27T02:42:29;99771.27;;;7.10;59.03
70256;BME280;57669;52.624;-1.688;2022-09-27T02:44:54;99769.85;;;7.49;59.33
70256;BME280;57669;52.624;-1.688;2022-09-27T02:47:30;99765.97;;;6.99;59.55
70256;BME280;57669;52.624;-1.688;2022-09-27T02:49:54;99754.91;;;7.26;58.90
70256;BME280;57669;52.624;-1.688;2022-09-27T02:52:16;99745.62;;;7.27;59.07
70256;BME280;57669;52.624;-1.688;2022-09-27T02:54:41;99741.49;;;7.70;57.94
70256;BME280;57669;52.624;-1.688;2022-09-27T02:57:09;99746.25;;;7.34;58.98
70256;BME280;57669;52.624;-1.688;2022-09-27T02:59:32;99747.83;;;7.47;58.75
70256;BME280;57669;52.624;-1.688;2022-09-27T03:01:59;99748.44;;;7.48;59.16
70256;BME280;57669;52.624;-1.688;2022-09-27T03:04:21;99738.77;;;7.49;58.88
70256;BME280;57669;52.624;-1.688;2022-09-27T03:06:45;99732.26;;;7.12;59.89
70256;BME280;57669;52.624;-1.688;2022-09-27T03:09:13;99731.85;;;7.39;59.40
70256;BME280;57669;52.624;-1.688;2022-09-27T03:11:33;99729.74;;;6.73;61.95
70256;BME280;57669;52.624;-1.688;2022-09-27T03:13:58;99735.35;;;6.89;60.71
70256;BME280;57669;52.624;-1.688;2022-09-27T03:16:24;99735.65;;;7.38;60.29
70256;BME280;57669;52.624;-1.688;2022-09-27T03:18:49;99730.93;;;7.26;60.60
70256;BME280;57669;52.624;-1.688;2022-09-27T03:21:15;99733.17;;;7.11;61.28
70256;BME280;57669;52.624;-1.688;2022-09-27T03:23:40;99731.71;;;7.33;59.45
70256;BME280;57669;52.624;-1.688;2022-09-27T03:26:06;99729.38;;;7.85;58.51
70256;BME280;57669;52.624;-1.688;2022-09-27T03:28:31;99736.50;;;7.34;59.40
70256;BME280;57669;52.624;-1.688;2022-09-27T03:30:56;99733.78;;;7.72;58.88
70256;BME280;57669;52.624;-1.688;2022-09-27T03:33:22;99735.57;;;6.98;60.16
70256;BME280;57669;52.624;-1.688;2022-09-27T03:35:47;99739.45;;;6.71;61.00
70256;BME280;57669;52.624;-1.688;2022-09-27T03:38:13;99734.24;;;6.94;61.47
70256;BME280;57669;52.624;-1.688;2022-09-27T03:40:38;99729.44;;;6.73;62.07
70256;BME280;57669;52.624;-1.688;2022-09-27T03:43:03;99723.77;;;6.77;63.23
70256;BME280;57669;52.624;-1.688;2022-09-27T03:45:29;99722.18;;;6.95;63.64
70256;BME280;57669;52.624;-1.688;2022-09-27T03:47:54;99713.85;;;7.25;61.79
70256;BME280;57669;52.624;-1.688;2022-09-27T03:50:20;99713.83;;;7.04;61.83
70256;BME280;57669;52.624;-1.688;2022-09-27T03:52:45;99711.44;;;6.50;62.92
70256;BME280;57669;52.624;-1.688;2022-09-27T03:57:36;99709.69;;;6.93;62.51
70256;BME280;57669;52.624;-1.688;2022-09-27T04:00:03;99716.17;;;6.11;64.08
70256;BME280;57669;52.624;-1.688;2022-09-27T04:02:27;99722.60;;;7.18;61.51
70256;BME280;57669;52.624;-1.688;2022-09-27T04:04:53;99721.56;;;6.60;62.29
70256;BME280;57669;52.624;-1.688;2022-09-27T04:07:18;99716.33;;;6.90;62.55
70256;BME280;57669;52.624;-1.688;2022-09-27T04:09:44;99703.35;;;7.21;62.47
70256;BME280;57669;52.624;-1.688;2022-09-27T04:12:09;99699.22;;;6.58;62.54
70256;BME280;57669;52.624;-1.688;2022-09-27T04:14:35;99707.24;;;6.04;63.59
70256;BME280;57669;52.624;-1.688;2022-09-27T04:17:00;99704.56;;;6.14;65.11
70256;BME280;57669;52.624;-1.688;2022-09-27T04:19:25;99693.06;;;6.42;64.20
70256;BME280;57669;52.624;-1.688;2022-09-27T04:21:50;99695.50;;;6.39;64.02
70256;BME280;57669;52.624;-1.688;2022-09-27T04:24:16;99702.41;;;6.34;64.18
70256;BME280;57669;52.624;-1.688;2022-09-27T04:26:41;99697.02;;;6.19;64.20
70256;BME280;57669;52.624;-1.688;2022-09-27T04:29:07;99707.41;;;5.78;66.00
70256;BME280;57669;52.624;-1.688;2022-09-27T04:31:32;99698.10;;;6.44;64.25
70256;BME280;57669;52.624;-1.688;2022-09-27T04:33:58;99695.96;;;6.21;64.23
70256;BME280;57669;52.624;-1.688;2022-09-27T04:36:25;99692.84;;;6.49;64.29
70256;BME280;57669;52.624;-1.688;2022-09-27T04:38:49;99695.68;;;6.67;62.77
70256;BME280;57669;52.624;-1.688;2022-09-27T04:41:14;99694.20;;;6.68;62.71
70256;BME280;57669;52.624;-1.688;2022-09-27T04:43:40;99695.41;;;6.81;63.07
70256;BME280;57669;52.624;-1.688;2022-09-27T04:46:05;99697.20;;;6.76;62.62
70256;BME280;57669;52.624;-1.688;2022-09-27T04:48:30;99692.57;;;6.85;62.76
70256;BME280;57669;52.624;-1.688;2022-09-27T04:50:57;99697.41;;;6.42;63.25
70256;BME280;57669;52.624;-1.688;2022-09-27T04:53:21;99697.31;;;6.32;63.42
70256;BME280;57669;52.624;-1.688;2022-09-27T04:55:46;99696.59;;;7.09;61.75
70256;BME280;57669;52.624;-1.688;2022-09-27T04:58:12;99692.01;;;7.24;61.87
70256;BME280;57669;52.624;-1.688;2022-09-27T05:00:38;99687.01;;;6.88;62.32
70256;BME280;57669;52.624;-1.688;2022-09-27T05:03:04;99687.20;;;7.12;61.70
70256;BME280;57669;52.624;-1.688;2022-09-27T05:05:28;99688.47;;;7.00;61.82
70256;BME280;57669;52.624;-1.688;2022-09-27T05:07:54;99692.62;;;7.64;60.43
70256;BME280;57669;52.624;-1.688;2022-09-27T05:10:19;99694.10;;;6.97;61.56
70256;BME280;57669;52.624;-1.688;2022-09-27T05:12:45;99688.58;;;7.63;60.55
70256;BME280;57669;52.624;-1.688;2022-09-27T05:15:10;99689.80;;;7.86;60.35
70256;BME280;57669;52.624;-1.688;2022-09-27T05:17:36;99681.69;;;7.52;60.72
70256;BME280;57669;52.624;-1.688;2022-09-27T05:20:01;99670.55;;;8.06;59.74
70256;BME280;57669;52.624;-1.688;2022-09-27T05:22:27;99663.68;;;8.18;59.17
70256;BME280;57669;52.624;-1.688;2022-09-27T05:24:52;99664.20;;;8.49;58.28
70256;BME280;57669;52.624;-1.688;2022-09-27T05:27:17;99670.35;;;7.58;60.73
70256;BME280;57669;52.624;-1.688;2022-09-27T05:29:43;99668.94;;;7.99;59.76
70256;BME280;57669;52.624;-1.688;2022-09-27T05:32:08;99669.52;;;7.97;59.75
70256;BME280;57669;52.624;-1.688;2022-09-27T05:34:33;99668.56;;;8.51;58.83
70256;BME280;57669;52.624;-1.688;2022-09-27T05:36:59;99666.17;;;8.26;59.74
70256;BME280;57669;52.624;-1.688;2022-09-27T05:39:24;99667.89;;;8.28;60.21
70256;BME280;57669;52.624;-1.688;2022-09-27T05:41:49;99661.48;;;8.04;60.97
70256;BME280;57669;52.624;-1.688;2022-09-27T05:44:16;99663.89;;;8.02;61.01
70256;BME280;57669;52.624;-1.688;2022-09-27T05:46:41;99657.27;;;8.25;60.05
70256;BME280;57669;52.624;-1.688;2022-09-27T05:49:07;99657.19;;;8.64;59.88
70256;BME280;57669;52.624;-1.688;2022-09-27T05:51:32;99655.90;;;8.36;60.06
70256;BME280;57669;52.624;-1.688;2022-09-27T05:53:57;99641.80;;;8.00;60.60
70256;BME280;57669;52.624;-1.688;2022-09-27T05:56:22;99649.11;;;7.57;62.07
70256;BME280;57669;52.624;-1.688;2022-09-27T05:58:48;99642.52;;;8.12;60.80
70256;BME280;57669;52.624;-1.688;2022-09-27T06:01:14;99643.21;;;8.30;60.63
70256;BME280;57669;52.624;-1.688;2022-09-27T06:03:39;99636.27;;;8.31;60.24
70256;BME280;57669;52.624;-1.688;2022-09-27T06:06:05;99633.07;;;8.55;59.71
70256;BME280;57669;52.624;-1.688;2022-09-27T06:08:32;99628.23;;;8.20;60.29
70256;BME280;57669;52.624;-1.688;2022-09-27T06:11:01;99625.74;;;8.21;60.03
70256;BME280;57669;52.624;-1.688;2022-09-27T06:13:22;99625.72;;;8.06;60.95
70256;BME280;57669;52.624;-1.688;2022-09-27T06:15:48;99628.98;;;7.63;62.47
70256;BME280;57669;52.624;-1.688;2022-09-27T06:18:14;99632.59;;;8.16;61.51
70256;BME280;57669;52.624;-1.688;2022-09-27T06:20:40;99628.95;;;8.01;61.31
70256;BME280;57669;52.624;-1.688;2022-09-27T06:23:06;99617.88;;;7.64;62.10
70256;BME280;57669;52.624;-1.688;2022-09-27T06:25:30;99618.14;;;8.29;60.49
70256;BME280;57669;52.624;-1.688;2022-09-27T06:27:56;99610.14;;;8.11;60.98
70256;BME280;57669;52.624;-1.688;2022-09-27T06:30:22;99604.01;;;7.34;62.55
70256;BME280;57669;52.624;-1.688;2022-09-27T06:32:47;99600.50;;;7.45;62.72
70256;BME280;57669;52.624;-1.688;2022-09-27T06:35:13;99602.33;;;8.13;61.22
70256;BME280;57669;52.624;-1.688;2022-09-27T06:37:39;99593.99;;;7.86;61.24
70256;BME280;57669;52.624;-1.688;2022-09-27T06:40:06;99595.58;;;8.61;59.76
70256;BME280;57669;52.624;-1.688;2022-09-27T06:42:31;99595.62;;;8.65;59.33
70256;BME280;57669;52.624;-1.688;2022-09-27T06:44:56;99591.39;;;8.32;60.24
70256;BME280;57669;52.624;-1.688;2022-09-27T06:47:22;99593.05;;;8.13;60.80
70256;BME280;57669;52.624;-1.688;2022-09-27T06:49:48;99594.02;;;7.84;61.22
70256;BME280;57669;52.624;-1.688;2022-09-27T06:52:13;99605.88;;;7.55;62.48
70256;BME280;57669;52.624;-1.688;2022-09-27T06:54:39;99600.03;;;7.38;63.34
70256;BME280;57669;52.624;-1.688;2022-09-27T06:57:05;99599.72;;;7.24;64.58
70256;BME280;57669;52.624;-1.688;2022-09-27T06:59:30;99582.51;;;6.85;64.81
70256;BME280;57669;52.624;-1.688;2022-09-27T07:01:56;99593.97;;;7.37;63.29
70256;BME280;57669;52.624;-1.688;2022-09-27T07:04:21;99595.43;;;7.92;62.36
70256;BME280;57669;52.624;-1.688;2022-09-27T07:06:47;99595.46;;;8.54;60.79
70256;BME280;57669;52.624;-1.688;2022-09-27T07:09:13;99597.94;;;7.98;60.39
70256;BME280;57669;52.624;-1.688;2022-09-27T07:11:38;99594.76;;;8.52;59.42
70256;BME280;57669;52.624;-1.688;2022-09-27T07:14:04;99593.92;;;7.98;60.74
70256;BME280;57669;52.624;-1.688;2022-09-27T07:16:30;99591.95;;;8.22;60.45
70256;BME280;57669;52.624;-1.688;2022-09-27T07:18:55;99592.59;;;8.53;59.97
70256;BME280;57669;52.624;-1.688;2022-09-27T07:21:21;99589.83;;;8.22;60.14
70256;BME280;57669;52.624;-1.688;2022-09-27T07:23:47;99592.83;;;7.98;60.71
70256;BME280;57669;52.624;-1.688;2022-09-27T07:26:12;99587.14;;;8.56;60.08
70256;BME280;57669;52.624;-1.688;2022-09-27T07:28:38;99582.81;;;7.68;61.56
70256;BME280;57669;52.624;-1.688;2022-09-27T07:31:06;99584.99;;;8.64;60.58
70256;BME280;57669;52.624;-1.688;2022-09-27T07:33:30;99586.93;;;7.79;63.68
70256;BME280;57669;52.624;-1.688;2022-09-27T07:35:55;99583.38;;;7.57;63.95
70256;BME280;57669;52.624;-1.688;2022-09-27T07:38:21;99582.52;;;7.41;64.96
70256;BME280;57669;52.624;-1.688;2022-09-27T07:40:47;99579.56;;;7.84;64.46
70256;BME280;57669;52.624;-1.688;2022-09-27T07:43:12;99568.80;;;7.58;64.40
70256;BME280;57669;52.624;-1.688;2022-09-27T07:45:38;99576.59;;;7.79;63.69
70256;BME280;57669;52.624;-1.688;2022-09-27T07:48:04;99576.05;;;7.55;64.38
70256;BME280;57669;52.624;-1.688;2022-09-27T07:50:29;99574.69;;;8.53;62.90
70256;BME280;57669;52.624;-1.688;2022-09-27T07:52:56;99582.60;;;7.26;64.95
70256;BME280;57669;52.624;-1.688;2022-09-27T07:55:20;99583.23;;;7.05;66.16
70256;BME280;57669;52.624;-1.688;2022-09-27T07:57:46;99583.50;;;8.42;62.89
70256;BME280;57669;52.624;-1.688;2022-09-27T08:00:14;99583.87;;;7.50;64.67
70256;BME280;57669;52.624;-1.688;2022-09-27T08:02:37;99580.38;;;7.78;63.39
70256;BME280;57669;52.624;-1.688;2022-09-27T08:05:04;99579.21;;;8.11;63.90
70256;BME280;57669;52.624;-1.688;2022-09-27T08:07:29;99578.75;;;7.73;63.64
70256;BME280;57669;52.624;-1.688;2022-09-27T08:09:55;99566.93;;;7.86;63.70
70256;BME280;57669;52.624;-1.688;2022-09-27T08:12:20;99550.05;;;8.68;62.37
70256;BME280;57669;52.624;-1.688;2022-09-27T08:14:46;99556.05;;;8.13;63.07
70256;BME280;57669;52.624;-1.688;2022-09-27T08:17:12;99564.12;;;8.48;62.54
70256;BME280;57669;52.624;-1.688;2022-09-27T08:19:37;99574.36;;;8.61;63.04
70256;BME280;57669;52.624;-1.688;2022-09-27T08:22:03;99580.82;;;8.41;62.92
70256;BME280;57669;52.624;-1.688;2022-09-27T08:24:29;99563.35;;;8.34;64.08
70256;BME280;57669;52.624;-1.688;2022-09-27T08:26:54;99557.41;;;8.49;63.40
70256;BME280;57669;52.624;-1.688;2022-09-27T08:29:20;99564.45;;;8.58;63.21
70256;BME280;57669;52.624;-1.688;2022-09-27T08:31:46;99558.76;;;8.57;63.09
70256;BME280;57669;52.624;-1.688;2022-09-27T08:34:12;99554.79;;;9.10;62.05
70256;BME280;57669;52.624;-1.688;2022-09-27T08:36:38;99554.23;;;8.29;63.17
70256;BME280;57669;52.624;-1.688;2022-09-27T08:39:04;99551.97;;;7.69;65.06
70256;BME280;57669;52.624;-1.688;2022-09-27T08:41:35;99556.23;;;8.89;64.36
70256;BME280;57669;52.624;-1.688;2022-09-27T08:44:05;99547.18;;;8.19;64.44
70256;BME280;57669;52.624;-1.688;2022-09-27T08:46:28;99545.25;;;8.28;65.77
70256;BME280;57669;52.624;-1.688;2022-09-27T08:48:48;99544.67;;;8.05;66.55
70256;BME280;57669;52.624;-1.688;2022-09-27T08:51:13;99541.92;;;8.03;66.66
70256;BME280;57669;52.624;-1.688;2022-09-27T08:53:44;99539.80;;;8.87;64.59
70256;BME280;57669;52.624;-1.688;2022-09-27T08:56:06;99540.23;;;9.47;62.13
70256;BME280;57669;52.624;-1.688;2022-09-27T08:58:33;99552.60;;;8.52;62.67
70256;BME280;57669;52.624;-1.688;2022-09-27T09:00:58;99549.69;;;8.50;63.76
70256;BME280;57669;52.624;-1.688;2022-09-27T09:03:23;99551.82;;;8.47;64.75
70256;BME280;57669;52.624;-1.688;2022-09-27T09:05:54;99551.20;;;8.51;64.04
70256;BME280;57669;52.624;-1.688;2022-09-27T09:08:25;99549.13;;;8.51;65.10
70256;BME280;57669;52.624;-1.688;2022-09-27T09:10:48;99547.64;;;8.81;63.90
70256;BME280;57669;52.624;-1.688;2022-09-27T09:13:10;99546.37;;;8.07;65.10
70256;BME280;57669;52.624;-1.688;2022-09-27T09:15:35;99553.61;;;8.79;63.18
70256;BME280;57669;52.624;-1.688;2022-09-27T09:18:12;99550.81;;;8.38;62.78
70256;BME280;57669;52.624;-1.688;2022-09-27T09:20:32;99557.90;;;8.01;63.06
70256;BME280;57669;52.624;-1.688;2022-09-27T09:22:59;99550.99;;;7.92;64.82
70256;BME280;57669;52.624;-1.688;2022-09-27T09:25:22;99560.07;;;8.15;63.60
70256;BME280;57669;52.624;-1.688;2022-09-27T09:27:43;99568.53;;;8.57;63.60
70256;BME280;57669;52.624;-1.688;2022-09-27T09:30:16;99569.46;;;9.73;60.87
70256;BME280;57669;52.624;-1.688;2022-09-27T09:32:39;99578.51;;;9.00;62.39
70256;BME280;57669;52.624;-1.688;2022-09-27T09:34:58;99576.69;;;9.27;63.80
70256;BME280;57669;52.624;-1.688;2022-09-27T09:37:31;99573.06;;;9.08;63.75
70256;BME280;57669;52.624;-1.688;2022-09-27T09:39:51;99571.78;;;9.06;62.90
70256;BME280;57669;52.624;-1.688;2022-09-27T09:42:17;99574.27;;;8.54;63.96
70256;BME280;57669;52.624;-1.688;2022-09-27T09:44:46;99575.81;;;9.16;62.77
70256;BME280;57669;52.624;-1.688;2022-09-27T09:47:11;99574.74;;;9.19;62.15
70256;BME280;57669;52.624;-1.688;2022-09-27T09:49:36;99574.13;;;8.77;64.02
70256;BME280;57669;52.624;-1.688;2022-09-27T09:52:00;99576.77;;;8.69;63.75
70256;BME280;57669;52.624;-1.688;2022-09-27T09:54:27;99569.01;;;7.79;66.00
70256;BME280;57669;52.624;-1.688;2022-09-27T09:56:51;99567.81;;;8.01;65.61
70256;BME280;57669;52.624;-1.688;2022-09-27T09:59:17;99570.14;;;7.61;65.37
70256;BME280;57669;52.624;-1.688;2022-09-27T10:01:42;99567.06;;;7.97;66.86
70256;BME280;57669;52.624;-1.688;2022-09-27T10:04:05;99567.74;;;8.68;63.46
70256;BME280;57669;52.624;-1.688;2022-09-27T10:06:31;99565.10;;;8.35;64.57
70256;BME280;57669;52.624;-1.688;2022-09-27T10:08:58;99566.27;;;8.38;63.63
70256;BME280;57669;52.624;-1.688;2022-09-27T10:11:25;99568.20;;;8.56;63.57
70256;BME280;57669;52.624;-1.688;2022-09-27T10:13:49;99571.13;;;7.57;65.59
70256;BME280;57669;52.624;-1.688;2022-09-27T10:16:16;99564.87;;;7.45;65.83
70256;BME280;57669;52.624;-1.688;2022-09-27T10:18:40;99559.11;;;7.92;65.08
70256;BME280;57669;52.624;-1.688;2022-09-27T10:21:11;99558.86;;;8.55;64.62
70256;BME280;57669;52.624;-1.688;2022-09-27T10:23:32;99554.60;;;8.50;63.54
70256;BME280;57669;52.624;-1.688;2022-09-27T10:26:00;99550.21;;;8.96;62.65
70256;BME280;57669;52.624;-1.688;2022-09-27T10:28:28;99546.47;;;8.08;64.28
70256;BME280;57669;52.624;-1.688;2022-09-27T10:33:17;99555.10;;;8.48;63.30
70256;BME280;57669;52.624;-1.688;2022-09-27T10:35:43;99563.60;;;9.00;60.77
70256;BME280;57669;52.624;-1.688;2022-09-27T10:40:32;99558.55;;;8.91;60.73
70256;BME280;57669;52.624;-1.688;2022-09-27T10:42:58;99556.27;;;9.55;59.60
70256;BME280;57669;52.624;-1.688;2022-09-27T10:45:29;99559.94;;;9.26;60.01
70256;BME280;57669;52.624;-1.688;2022-09-27T10:47:50;99556.80;;;9.41;60.66
70256;BME280;57669;52.624;-1.688;2022-09-27T10:50:18;99549.99;;;9.98;58.47
70256;BME280;57669;52.624;-1.688;2022-09-27T10:52:41;99555.75;;;9.46;58.74
70256;BME280;57669;52.624;-1.688;2022-09-27T10:55:15;99547.32;;;9.64;58.25
70256;BME280;57669;52.624;-1.688;2022-09-27T10:57:32;99543.19;;;10.11;57.89
70256;BME280;57669;52.624;-1.688;2022-09-27T11:00:03;99544.05;;;9.40;57.81
70256;BME280;57669;52.624;-1.688;2022-09-27T11:02:28;99541.88;;;8.78;59.42
70256;BME280;57669;52.624;-1.688;2022-09-27T11:07:16;99541.43;;;9.31;58.55
70256;BME280;57669;52.624;-1.688;2022-09-27T11:09:46;99547.78;;;9.51;57.48
70256;BME280;57669;52.624;-1.688;2022-09-27T11:12:08;99542.58;;;9.45;57.52
70256;BME280;57669;52.624;-1.688;2022-09-27T11:14:32;99533.46;;;10.18;57.86
70256;BME280;57669;52.624;-1.688;2022-09-27T11:17:07;99526.92;;;9.72;58.48
70256;BME280;57669;52.624;-1.688;2022-09-27T11:19:33;99525.59;;;9.77;57.36
70256;BME280;57669;52.624;-1.688;2022-09-27T11:21:53;99517.47;;;10.06;56.68
70256;BME280;57669;52.624;-1.688;2022-09-27T11:26:49;99506.22;;;9.85;56.76
70256;BME280;57669;52.624;-1.688;2022-09-27T11:29:19;99501.78;;;10.65;55.28
70256;BME280;57669;52.624;-1.688;2022-09-27T11:31:39;99502.33;;;10.13;55.16
70256;BME280;57669;52.624;-1.688;2022-09-27T11:34:09;99495.71;;;10.86;53.67
70256;BME280;57669;52.624;-1.688;2022-09-27T11:36:33;99496.45;;;11.29;53.61
70256;BME280;57669;52.624;-1.688;2022-09-27T11:38:55;99499.56;;;11.39;52.57
70256;BME280;57669;52.624;-1.688;2022-09-27T11:41:26;99494.57;;;11.60;51.94
70256;BME280;57669;52.624;-1.688;2022-09-27T11:43:52;99487.28;;;10.96;53.81
70256;BME280;57669;52.624;-1.688;2022-09-27T11:46:11;99491.40;;;10.98;52.89
70256;BME280;57669;52.624;-1.688;2022-09-27T11:48:44;99492.49;;;10.21;54.39
70256;BME280;57669;52.624;-1.688;2022-09-27T11:51:06;99493.35;;;10.09;55.11
70256;BME280;57669;52.624;-1.688;2022-09-27T11:53:35;99489.60;;;11.00;55.02
70256;BME280;57669;52.624;-1.688;2022-09-27T11:55:52;99488.28;;;10.12;54.86
70256;BME280;57669;52.624;-1.688;2022-09-27T11:58:21;99490.26;;;10.23;53.73
70256;BME280;57669;52.624;-1.688;2022-09-27T12:00:50;99488.09;;;10.88;53.03
70256;BME280;57669;52.624;-1.688;2022-09-27T12:05:37;99489.60;;;11.63;49.80
70256;BME280;57669;52.624;-1.688;2022-09-27T12:08:09;99490.37;;;11.46;50.00
70256;BME280;57669;52.624;-1.688;2022-09-27T12:10:23;99485.08;;;12.03;49.32
70256;BME280;57669;52.624;-1.688;2022-09-27T12:12:51;99487.20;;;11.84;51.25
70256;BME280;57669;52.624;-1.688;2022-09-27T12:15:18;99492.83;;;11.19;52.15
70256;BME280;57669;52.624;-1.688;2022-09-27T12:17:44;99483.06;;;11.44;50.76
70256;BME280;57669;52.624;-1.688;2022-09-27T12:20:13;99486.59;;;11.16;50.60
70256;BME280;57669;52.624;-1.688;2022-09-27T12:22:34;99484.76;;;11.26;50.80
70256;BME280;57669;52.624;-1.688;2022-09-27T12:24:58;99492.27;;;11.42;50.24
70256;BME280;57669;52.624;-1.688;2022-09-27T12:27:30;99488.74;;;11.49;50.32
70256;BME280;57669;52.624;-1.688;2022-09-27T12:29:49;99483.25;;;11.68;48.75
70256;BME280;57669;52.624;-1.688;2022-09-27T12:32:19;99480.88;;;12.17;48.22
70256;BME280;57669;52.624;-1.688;2022-09-27T12:34:46;99481.59;;;11.52;48.96
70256;BME280;57669;52.624;-1.688;2022-09-27T12:37:12;99482.74;;;11.71;49.57
70256;BME280;57669;52.624;-1.688;2022-09-27T12:39:41;99486.60;;;10.87;50.18
70256;BME280;57669;52.624;-1.688;2022-09-27T12:42:03;99482.47;;;10.95;50.70
70256;BME280;57669;52.624;-1.688;2022-09-27T12:44:23;99493.76;;;10.72;50.64
70256;BME280;57669;52.624;-1.688;2022-09-27T12:46:58;99494.43;;;10.18;52.61
70256;BME280;57669;52.624;-1.688;2022-09-27T12:49:21;99504.46;;;9.52;54.25
70256;BME280;57669;52.624;-1.688;2022-09-27T12:51:44;99493.35;;;9.88;54.42
70256;BME280;57669;52.624;-1.688;2022-09-27T12:56:45;99470.92;;;9.77;53.89
70256;BME280;57669;52.624;-1.688;2022-09-27T12:59:10;99476.12;;;9.60;53.39
70256;BME280;57669;52.624;-1.688;2022-09-27T13:01:33;99478.51;;;9.76;52.28
70256;BME280;57669;52.624;-1.688;2022-09-27T13:04:01;99477.22;;;10.03;52.11
70256;BME280;57669;52.624;-1.688;2022-09-27T13:06:28;99472.82;;;10.44;51.79
70256;BME280;57669;52.624;-1.688;2022-09-27T13:11:12;99482.28;;;9.92;50.69
70256;BME280;57669;52.624;-1.688;2022-09-27T13:13:33;99474.93;;;10.45;49.14